sensor_id;sensor_type;location;lat;lon;timestamp;P1;durP1;ratioP1;P2;durP2;ratioP2
40981;SDS011;26708;50.304;19.028;2022-10-31T00:01:55;38.15;;;17.00;;
40981;SDS011;26708;50.304;19.028;2022-10-31T00:04:56;34.30;;;17.30;;
40981;SDS011;26708;50.304;19.028;2022-10-31T00:07:57;43.63;;;20.08;;
40981;SDS011;26708;50.304;19.028;2022-10-31T00:10:58;40.17;;;19.65;;
40981;SDS011;26708;50.304;19.028;2022-10-31T00:14:02;38.05;;;17.27;;
40981;SDS011;26708;50.304;19.028;2022-10-31T00:17:04;38.15;;;18.80;;
40981;SDS011;26708;50.304;19.028;2022-10-31T00:20:05;37.97;;;18.75;;
40981;SDS011;26708;50.304;19.028;2022-10-31T00:23:06;35.95;;;18.35;;
40981;SDS011;26708;50.304;19.028;2022-10-31T00:26:12;32.22;;;16.83;;
40981;SDS011;26708;50.304;19.028;2022-10-31T00:29:13;34.30;;;16.88;;
40981;SDS011;26708;50.304;19.028;2022-10-31T00:32:13;33.90;;;16.98;;
40981;SDS011;26708;50.304;19.028;2022-10-31T00:35:16;36.03;;;16.25;;
40981;SDS011;26708;50.304;19.028;2022-10-31T00:38:18;34.58;;;17.58;;
40981;SDS011;26708;50.304;19.028;2022-10-31T00:41:19;37.50;;;17.05;;
40981;SDS011;26708;50.304;19.028;2022-10-31T00:44:20;31.85;;;16.67;;
40981;SDS011;26708;50.304;19.028;2022-10-31T00:47:21;38.60;;;19.15;;
40981;SDS011;26708;50.304;19.028;2022-10-31T00:50:22;34.78;;;18.50;;
40981;SDS011;26708;50.304;19.028;2022-10-31T00:53:23;35.97;;;18.65;;
40981;SDS011;26708;50.304;19.028;2022-10-31T00:56:24;33.72;;;17.33;;
40981;SDS011;26708;50.304;19.028;2022-10-31T00:59:26;32.78;;;16.77;;
40981;SDS011;26708;50.304;19.028;2022-10-31T01:02:26;30.95;;;16.00;;
40981;SDS011;26708;50.304;19.028;2022-10-31T01:05:28;36.03;;;16.38;;
40981;SDS011;26708;50.304;19.028;2022-10-31T01:08:29;32.55;;;16.70;;
40981;SDS011;26708;50.304;19.028;2022-10-31T01:11:30;31.45;;;15.65;;
40981;SDS011;26708;50.304;19.028;2022-10-31T01:14:31;35.58;;;15.20;;
40981;SDS011;26708;50.304;19.028;2022-10-31T01:17:32;35.20;;;17.52;;
40981;SDS011;26708;50.304;19.028;2022-10-31T01:20:32;39.58;;;18.38;;
40981;SDS011;26708;50.304;19.028;2022-10-31T01:23:35;38.15;;;18.38;;
40981;SDS011;26708;50.304;19.028;2022-10-31T01:26:36;40.67;;;18.83;;
40981;SDS011;26708;50.304;19.028;2022-10-31T01:29:37;41.88;;;19.55;;
40981;SDS011;26708;50.304;19.028;2022-10-31T01:32:40;41.20;;;19.55;;
40981;SDS011;26708;50.304;19.028;2022-10-31T01:35:42;36.65;;;17.90;;
40981;SDS011;26708;50.304;19.028;2022-10-31T01:38:42;39.65;;;18.83;;
40981;SDS011;26708;50.304;19.028;2022-10-31T01:41:46;35.17;;;17.55;;
40981;SDS011;26708;50.304;19.028;2022-10-31T01:44:53;36.72;;;17.67;;
40981;SDS011;26708;50.304;19.028;2022-10-31T01:47:58;35.38;;;17.88;;
40981;SDS011;26708;50.304;19.028;2022-10-31T01:51:00;33.75;;;17.80;;
40981;SDS011;26708;50.304;19.028;2022-10-31T01:54:06;35.35;;;17.48;;
40981;SDS011;26708;50.304;19.028;2022-10-31T01:57:12;33.88;;;18.55;;
40981;SDS011;26708;50.304;19.028;2022-10-31T02:00:21;39.53;;;18.92;;
40981;SDS011;26708;50.304;19.028;2022-10-31T02:03:22;35.67;;;16.65;;
40981;SDS011;26708;50.304;19.028;2022-10-31T02:10:33;30.55;;;15.75;;
40981;SDS011;26708;50.304;19.028;2022-10-31T02:13:37;34.80;;;16.55;;
40981;SDS011;26708;50.304;19.028;2022-10-31T02:16:41;36.20;;;16.83;;
40981;SDS011;26708;50.304;19.028;2022-10-31T02:29:37;36.22;;;18.02;;
40981;SDS011;26708;50.304;19.028;2022-10-31T02:41:18;42.53;;;18.30;;
40981;SDS011;26708;50.304;19.028;2022-10-31T02:44:45;41.63;;;17.98;;
40981;SDS011;26708;50.304;19.028;2022-10-31T02:47:50;38.97;;;18.27;;
40981;SDS011;26708;50.304;19.028;2022-10-31T02:50:58;42.90;;;19.75;;
40981;SDS011;26708;50.304;19.028;2022-10-31T02:57:04;37.22;;;17.88;;
40981;SDS011;26708;50.304;19.028;2022-10-31T03:00:08;34.17;;;17.27;;
40981;SDS011;26708;50.304;19.028;2022-10-31T03:03:14;40.33;;;17.83;;
40981;SDS011;26708;50.304;19.028;2022-10-31T03:06:32;37.60;;;17.95;;
40981;SDS011;26708;50.304;19.028;2022-10-31T03:09:45;38.70;;;18.17;;
40981;SDS011;26708;50.304;19.028;2022-10-31T03:13:06;34.08;;;16.65;;
40981;SDS011;26708;50.304;19.028;2022-10-31T03:19:29;35.03;;;17.35;;
40981;SDS011;26708;50.304;19.028;2022-10-31T03:22:34;35.40;;;17.60;;
40981;SDS011;26708;50.304;19.028;2022-10-31T03:25:39;39.17;;;21.30;;
40981;SDS011;26708;50.304;19.028;2022-10-31T03:28:49;36.60;;;17.65;;
40981;SDS011;26708;50.304;19.028;2022-10-31T03:31:56;40.83;;;18.95;;
40981;SDS011;26708;50.304;19.028;2022-10-31T03:35:00;40.17;;;18.38;;
40981;SDS011;26708;50.304;19.028;2022-10-31T03:38:06;36.60;;;17.17;;
40981;SDS011;26708;50.304;19.028;2022-10-31T03:41:09;35.45;;;17.98;;
40981;SDS011;26708;50.304;19.028;2022-10-31T03:44:16;40.95;;;17.65;;
40981;SDS011;26708;50.304;19.028;2022-10-31T03:47:25;38.20;;;17.77;;
40981;SDS011;26708;50.304;19.028;2022-10-31T03:50:29;32.97;;;16.50;;
40981;SDS011;26708;50.304;19.028;2022-10-31T03:53:43;36.20;;;17.73;;
40981;SDS011;26708;50.304;19.028;2022-10-31T03:56:55;41.10;;;18.08;;
40981;SDS011;26708;50.304;19.028;2022-10-31T04:00:04;38.58;;;18.40;;
40981;SDS011;26708;50.304;19.028;2022-10-31T04:03:25;38.65;;;18.10;;
40981;SDS011;26708;50.304;19.028;2022-10-31T04:06:31;40.05;;;17.45;;
40981;SDS011;26708;50.304;19.028;2022-10-31T04:09:36;44.35;;;19.00;;
40981;SDS011;26708;50.304;19.028;2022-10-31T04:12:41;36.47;;;17.95;;
40981;SDS011;26708;50.304;19.028;2022-10-31T04:15:55;36.55;;;17.77;;
40981;SDS011;26708;50.304;19.028;2022-10-31T04:18:57;39.80;;;18.05;;
40981;SDS011;26708;50.304;19.028;2022-10-31T04:26:51;42.78;;;19.27;;
40981;SDS011;26708;50.304;19.028;2022-10-31T04:29:55;42.83;;;18.38;;
40981;SDS011;26708;50.304;19.028;2022-10-31T04:32:56;44.28;;;19.23;;
40981;SDS011;26708;50.304;19.028;2022-10-31T04:35:57;42.72;;;19.67;;
40981;SDS011;26708;50.304;19.028;2022-10-31T04:43:54;43.03;;;17.92;;
40981;SDS011;26708;50.304;19.028;2022-10-31T04:46:55;35.13;;;17.88;;
40981;SDS011;26708;50.304;19.028;2022-10-31T04:49:57;36.90;;;17.40;;
40981;SDS011;26708;50.304;19.028;2022-10-31T04:52:57;42.83;;;18.58;;
40981;SDS011;26708;50.304;19.028;2022-10-31T04:59:14;44.72;;;18.27;;
40981;SDS011;26708;50.304;19.028;2022-10-31T05:02:29;38.30;;;18.75;;
40981;SDS011;26708;50.304;19.028;2022-10-31T05:05:37;39.10;;;18.73;;
40981;SDS011;26708;50.304;19.028;2022-10-31T05:08:38;43.47;;;19.05;;
40981;SDS011;26708;50.304;19.028;2022-10-31T05:11:41;39.58;;;18.75;;
40981;SDS011;26708;50.304;19.028;2022-10-31T05:14:56;41.92;;;19.20;;
40981;SDS011;26708;50.304;19.028;2022-10-31T05:18:15;40.00;;;19.15;;
40981;SDS011;26708;50.304;19.028;2022-10-31T05:21:19;41.15;;;19.92;;
40981;SDS011;26708;50.304;19.028;2022-10-31T05:24:29;47.47;;;18.63;;
40981;SDS011;26708;50.304;19.028;2022-10-31T05:27:30;49.88;;;19.52;;
40981;SDS011;26708;50.304;19.028;2022-10-31T05:30:31;42.65;;;19.63;;
40981;SDS011;26708;50.304;19.028;2022-10-31T05:33:32;42.92;;;17.83;;
40981;SDS011;26708;50.304;19.028;2022-10-31T05:36:58;36.92;;;17.48;;
40981;SDS011;26708;50.304;19.028;2022-10-31T05:39:59;35.88;;;16.98;;
40981;SDS011;26708;50.304;19.028;2022-10-31T05:43:00;47.55;;;18.90;;
40981;SDS011;26708;50.304;19.028;2022-10-31T05:46:01;41.97;;;19.33;;
40981;SDS011;26708;50.304;19.028;2022-10-31T05:49:20;43.40;;;18.88;;
40981;SDS011;26708;50.304;19.028;2022-10-31T05:52:54;52.13;;;20.70;;
40981;SDS011;26708;50.304;19.028;2022-10-31T05:56:05;51.47;;;21.45;;
40981;SDS011;26708;50.304;19.028;2022-10-31T05:59:07;45.80;;;20.20;;
40981;SDS011;26708;50.304;19.028;2022-10-31T06:02:08;47.80;;;21.65;;
40981;SDS011;26708;50.304;19.028;2022-10-31T06:05:28;50.17;;;21.27;;
40981;SDS011;26708;50.304;19.028;2022-10-31T06:08:29;48.70;;;21.33;;
40981;SDS011;26708;50.304;19.028;2022-10-31T06:11:33;44.22;;;20.38;;
40981;SDS011;26708;50.304;19.028;2022-10-31T06:14:37;45.65;;;19.98;;
40981;SDS011;26708;50.304;19.028;2022-10-31T06:17:37;42.05;;;19.40;;
40981;SDS011;26708;50.304;19.028;2022-10-31T06:20:44;47.17;;;21.23;;
40981;SDS011;26708;50.304;19.028;2022-10-31T06:23:45;44.97;;;20.38;;
40981;SDS011;26708;50.304;19.028;2022-10-31T06:27:03;47.80;;;21.57;;
40981;SDS011;26708;50.304;19.028;2022-10-31T06:30:04;44.20;;;21.95;;
40981;SDS011;26708;50.304;19.028;2022-10-31T06:33:08;44.35;;;20.73;;
40981;SDS011;26708;50.304;19.028;2022-10-31T06:36:12;43.47;;;21.63;;
40981;SDS011;26708;50.304;19.028;2022-10-31T06:39:13;46.50;;;21.40;;
40981;SDS011;26708;50.304;19.028;2022-10-31T06:42:17;45.22;;;20.98;;
40981;SDS011;26708;50.304;19.028;2022-10-31T06:45:18;41.13;;;20.13;;
40981;SDS011;26708;50.304;19.028;2022-10-31T06:48:54;43.30;;;20.33;;
40981;SDS011;26708;50.304;19.028;2022-10-31T06:52:07;49.63;;;21.95;;
40981;SDS011;26708;50.304;19.028;2022-10-31T06:55:09;53.85;;;21.45;;
40981;SDS011;26708;50.304;19.028;2022-10-31T06:58:10;48.63;;;21.00;;
40981;SDS011;26708;50.304;19.028;2022-10-31T07:01:13;47.17;;;21.10;;
40981;SDS011;26708;50.304;19.028;2022-10-31T07:04:14;51.38;;;24.98;;
40981;SDS011;26708;50.304;19.028;2022-10-31T07:07:15;46.58;;;21.45;;
40981;SDS011;26708;50.304;19.028;2022-10-31T07:10:17;45.38;;;20.90;;
40981;SDS011;26708;50.304;19.028;2022-10-31T07:13:26;41.78;;;20.38;;
40981;SDS011;26708;50.304;19.028;2022-10-31T07:16:34;43.60;;;19.67;;
40981;SDS011;26708;50.304;19.028;2022-10-31T07:19:37;40.50;;;19.42;;
40981;SDS011;26708;50.304;19.028;2022-10-31T07:27:19;38.40;;;19.05;;
40981;SDS011;26708;50.304;19.028;2022-10-31T07:30:22;40.95;;;18.27;;
40981;SDS011;26708;50.304;19.028;2022-10-31T07:33:27;44.45;;;19.83;;
40981;SDS011;26708;50.304;19.028;2022-10-31T07:36:46;39.97;;;20.48;;
40981;SDS011;26708;50.304;19.028;2022-10-31T07:39:47;36.55;;;19.05;;
40981;SDS011;26708;50.304;19.028;2022-10-31T07:42:48;45.10;;;21.30;;
40981;SDS011;26708;50.304;19.028;2022-10-31T07:46:25;41.55;;;21.92;;
40981;SDS011;26708;50.304;19.028;2022-10-31T07:49:45;39.65;;;20.60;;
40981;SDS011;26708;50.304;19.028;2022-10-31T07:53:07;45.55;;;21.35;;
40981;SDS011;26708;50.304;19.028;2022-10-31T07:56:48;40.15;;;20.77;;
40981;SDS011;26708;50.304;19.028;2022-10-31T07:59:49;40.50;;;19.27;;
40981;SDS011;26708;50.304;19.028;2022-10-31T08:03:02;40.58;;;19.75;;
40981;SDS011;26708;50.304;19.028;2022-10-31T08:06:23;42.78;;;21.33;;
40981;SDS011;26708;50.304;19.028;2022-10-31T08:09:45;37.03;;;19.52;;
40981;SDS011;26708;50.304;19.028;2022-10-31T08:12:57;40.20;;;21.85;;
40981;SDS011;26708;50.304;19.028;2022-10-31T08:16:00;40.65;;;19.02;;
40981;SDS011;26708;50.304;19.028;2022-10-31T08:19:07;37.95;;;19.08;;
40981;SDS011;26708;50.304;19.028;2022-10-31T08:22:12;29.83;;;16.23;;
40981;SDS011;26708;50.304;19.028;2022-10-31T08:25:13;22.88;;;10.88;;
40981;SDS011;26708;50.304;19.028;2022-10-31T08:31:23;20.35;;;10.05;;
40981;SDS011;26708;50.304;19.028;2022-10-31T08:34:47;16.75;;;7.50;;
40981;SDS011;26708;50.304;19.028;2022-10-31T08:38:01;18.08;;;7.55;;
40981;SDS011;26708;50.304;19.028;2022-10-31T08:44:07;18.30;;;7.10;;
40981;SDS011;26708;50.304;19.028;2022-10-31T08:47:07;19.65;;;7.65;;
40981;SDS011;26708;50.304;19.028;2022-10-31T08:50:08;17.80;;;6.80;;
40981;SDS011;26708;50.304;19.028;2022-10-31T08:53:13;14.18;;;6.43;;
40981;SDS011;26708;50.304;19.028;2022-10-31T08:56:16;13.02;;;6.53;;
40981;SDS011;26708;50.304;19.028;2022-10-31T08:59:17;14.88;;;6.80;;
40981;SDS011;26708;50.304;19.028;2022-10-31T09:02:38;13.48;;;6.63;;
40981;SDS011;26708;50.304;19.028;2022-10-31T09:05:40;13.23;;;6.65;;
40981;SDS011;26708;50.304;19.028;2022-10-31T09:08:43;14.93;;;6.22;;
40981;SDS011;26708;50.304;19.028;2022-10-31T09:11:45;15.30;;;6.70;;
40981;SDS011;26708;50.304;19.028;2022-10-31T09:15:06;14.85;;;5.88;;
40981;SDS011;26708;50.304;19.028;2022-10-31T09:22:38;12.00;;;6.25;;
40981;SDS011;26708;50.304;19.028;2022-10-31T09:25:40;15.50;;;6.68;;
40981;SDS011;26708;50.304;19.028;2022-10-31T09:29:02;19.75;;;6.72;;
40981;SDS011;26708;50.304;19.028;2022-10-31T09:32:05;14.68;;;7.40;;
40981;SDS011;26708;50.304;19.028;2022-10-31T09:35:13;19.98;;;7.45;;
40981;SDS011;26708;50.304;19.028;2022-10-31T09:38:16;17.60;;;6.95;;
40981;SDS011;26708;50.304;19.028;2022-10-31T09:41:23;12.13;;;5.93;;
40981;SDS011;26708;50.304;19.028;2022-10-31T09:44:44;16.90;;;6.80;;
40981;SDS011;26708;50.304;19.028;2022-10-31T09:48:27;16.15;;;6.18;;
40981;SDS011;26708;50.304;19.028;2022-10-31T09:56:07;14.85;;;6.60;;
40981;SDS011;26708;50.304;19.028;2022-10-31T09:59:24;15.93;;;7.35;;
40981;SDS011;26708;50.304;19.028;2022-10-31T10:02:33;16.20;;;6.97;;
40981;SDS011;26708;50.304;19.028;2022-10-31T10:05:51;15.07;;;6.72;;
40981;SDS011;26708;50.304;19.028;2022-10-31T10:09:13;18.20;;;6.50;;
40981;SDS011;26708;50.304;19.028;2022-10-31T10:22:46;17.65;;;6.32;;
40981;SDS011;26708;50.304;19.028;2022-10-31T10:25:58;14.13;;;6.32;;
40981;SDS011;26708;50.304;19.028;2022-10-31T10:29:17;15.07;;;6.50;;
40981;SDS011;26708;50.304;19.028;2022-10-31T10:32:29;19.88;;;6.40;;
40981;SDS011;26708;50.304;19.028;2022-10-31T10:35:44;15.63;;;5.90;;
40981;SDS011;26708;50.304;19.028;2022-10-31T10:38:50;15.18;;;6.22;;
40981;SDS011;26708;50.304;19.028;2022-10-31T10:41:54;13.60;;;6.03;;
40981;SDS011;26708;50.304;19.028;2022-10-31T10:45:17;15.63;;;5.88;;
40981;SDS011;26708;50.304;19.028;2022-10-31T10:48:49;13.90;;;5.85;;
40981;SDS011;26708;50.304;19.028;2022-10-31T10:55:16;20.30;;;5.38;;
40981;SDS011;26708;50.304;19.028;2022-10-31T10:58:21;18.45;;;5.53;;
40981;SDS011;26708;50.304;19.028;2022-10-31T11:01:23;14.77;;;5.35;;
40981;SDS011;26708;50.304;19.028;2022-10-31T11:04:31;15.20;;;5.28;;
40981;SDS011;26708;50.304;19.028;2022-10-31T11:07:37;17.80;;;6.25;;
40981;SDS011;26708;50.304;19.028;2022-10-31T11:10:40;25.00;;;6.43;;
40981;SDS011;26708;50.304;19.028;2022-10-31T11:13:42;16.42;;;5.80;;
40981;SDS011;26708;50.304;19.028;2022-10-31T11:16:45;16.83;;;7.05;;
40981;SDS011;26708;50.304;19.028;2022-10-31T11:19:49;18.65;;;7.70;;
40981;SDS011;26708;50.304;19.028;2022-10-31T11:23:20;14.95;;;6.50;;
40981;SDS011;26708;50.304;19.028;2022-10-31T11:26:22;25.02;;;6.72;;
40981;SDS011;26708;50.304;19.028;2022-10-31T11:29:24;19.05;;;6.93;;
40981;SDS011;26708;50.304;19.028;2022-10-31T11:32:26;19.30;;;6.03;;
40981;SDS011;26708;50.304;19.028;2022-10-31T11:35:33;17.92;;;6.32;;
40981;SDS011;26708;50.304;19.028;2022-10-31T11:38:40;18.10;;;6.50;;
40981;SDS011;26708;50.304;19.028;2022-10-31T11:41:43;19.55;;;6.13;;
40981;SDS011;26708;50.304;19.028;2022-10-31T11:44:44;15.73;;;6.88;;
40981;SDS011;26708;50.304;19.028;2022-10-31T11:47:47;17.77;;;7.10;;
40981;SDS011;26708;50.304;19.028;2022-10-31T11:50:51;17.48;;;7.30;;
40981;SDS011;26708;50.304;19.028;2022-10-31T11:57:33;22.63;;;7.27;;
40981;SDS011;26708;50.304;19.028;2022-10-31T12:00:48;20.23;;;7.07;;
40981;SDS011;26708;50.304;19.028;2022-10-31T12:04:05;19.95;;;7.35;;
40981;SDS011;26708;50.304;19.028;2022-10-31T12:07:08;17.83;;;6.63;;
40981;SDS011;26708;50.304;19.028;2022-10-31T12:10:10;23.23;;;7.65;;
40981;SDS011;26708;50.304;19.028;2022-10-31T12:16:20;23.95;;;7.45;;
40981;SDS011;26708;50.304;19.028;2022-10-31T12:22:58;13.73;;;6.63;;
40981;SDS011;26708;50.304;19.028;2022-10-31T12:26:11;23.17;;;5.93;;
40981;SDS011;26708;50.304;19.028;2022-10-31T12:46:53;21.98;;;7.22;;
40981;SDS011;26708;50.304;19.028;2022-10-31T12:57:44;17.88;;;7.63;;
40981;SDS011;26708;50.304;19.028;2022-10-31T13:00:53;16.58;;;6.60;;
40981;SDS011;26708;50.304;19.028;2022-10-31T13:07:29;18.95;;;7.93;;
40981;SDS011;26708;50.304;19.028;2022-10-31T13:10:47;15.73;;;7.45;;
40981;SDS011;26708;50.304;19.028;2022-10-31T13:13:58;16.40;;;7.15;;
40981;SDS011;26708;50.304;19.028;2022-10-31T13:17:05;21.45;;;10.65;;
40981;SDS011;26708;50.304;19.028;2022-10-31T13:24:20;18.80;;;8.13;;
40981;SDS011;26708;50.304;19.028;2022-10-31T13:27:30;20.67;;;7.30;;
40981;SDS011;26708;50.304;19.028;2022-10-31T13:30:43;31.08;;;9.60;;
40981;SDS011;26708;50.304;19.028;2022-10-31T13:33:47;19.20;;;9.45;;
40981;SDS011;26708;50.304;19.028;2022-10-31T13:36:57;24.50;;;8.15;;
40981;SDS011;26708;50.304;19.028;2022-10-31T13:46:37;14.80;;;7.53;;
40981;SDS011;26708;50.304;19.028;2022-10-31T13:49:39;17.88;;;7.60;;
40981;SDS011;26708;50.304;19.028;2022-10-31T14:03:19;20.52;;;6.35;;
40981;SDS011;26708;50.304;19.028;2022-10-31T14:06:20;16.42;;;6.43;;
40981;SDS011;26708;50.304;19.028;2022-10-31T14:09:28;16.42;;;6.50;;
40981;SDS011;26708;50.304;19.028;2022-10-31T14:12:36;17.38;;;6.13;;
40981;SDS011;26708;50.304;19.028;2022-10-31T14:15:42;14.25;;;6.45;;
40981;SDS011;26708;50.304;19.028;2022-10-31T14:19:07;16.05;;;6.72;;
40981;SDS011;26708;50.304;19.028;2022-10-31T14:22:28;20.75;;;6.72;;
40981;SDS011;26708;50.304;19.028;2022-10-31T14:25:31;20.67;;;6.70;;
40981;SDS011;26708;50.304;19.028;2022-10-31T14:28:34;16.02;;;6.65;;
40981;SDS011;26708;50.304;19.028;2022-10-31T14:31:37;18.40;;;6.55;;
40981;SDS011;26708;50.304;19.028;2022-10-31T14:49:00;22.15;;;8.00;;
40981;SDS011;26708;50.304;19.028;2022-10-31T14:52:19;24.35;;;9.88;;
40981;SDS011;26708;50.304;19.028;2022-10-31T14:55:20;67.60;;;28.75;;
40981;SDS011;26708;50.304;19.028;2022-10-31T15:01:38;62.75;;;28.70;;
40981;SDS011;26708;50.304;19.028;2022-10-31T15:04:40;77.43;;;32.53;;
40981;SDS011;26708;50.304;19.028;2022-10-31T15:07:51;94.35;;;38.92;;
40981;SDS011;26708;50.304;19.028;2022-10-31T15:10:53;57.13;;;26.17;;
40981;SDS011;26708;50.304;19.028;2022-10-31T15:13:55;26.40;;;12.98;;
40981;SDS011;26708;50.304;19.028;2022-10-31T15:16:58;38.97;;;16.55;;
40981;SDS011;26708;50.304;19.028;2022-10-31T15:20:03;41.20;;;15.20;;
40981;SDS011;26708;50.304;19.028;2022-10-31T15:23:04;30.10;;;13.98;;
40981;SDS011;26708;50.304;19.028;2022-10-31T15:26:20;42.10;;;18.05;;
40981;SDS011;26708;50.304;19.028;2022-10-31T15:29:23;42.80;;;15.35;;
40981;SDS011;26708;50.304;19.028;2022-10-31T15:32:28;30.40;;;13.73;;
40981;SDS011;26708;50.304;19.028;2022-10-31T15:35:30;47.60;;;18.70;;
40981;SDS011;26708;50.304;19.028;2022-10-31T15:43:00;33.60;;;14.55;;
40981;SDS011;26708;50.304;19.028;2022-10-31T15:46:06;28.42;;;11.70;;
40981;SDS011;26708;50.304;19.028;2022-10-31T15:49:12;34.15;;;13.43;;
40981;SDS011;26708;50.304;19.028;2022-10-31T15:52:37;34.30;;;13.50;;
40981;SDS011;26708;50.304;19.028;2022-10-31T15:55:49;27.02;;;12.10;;
40981;SDS011;26708;50.304;19.028;2022-10-31T15:58:59;27.50;;;9.50;;
40981;SDS011;26708;50.304;19.028;2022-10-31T16:02:09;26.67;;;9.32;;
40981;SDS011;26708;50.304;19.028;2022-10-31T16:05:16;31.15;;;10.65;;
40981;SDS011;26708;50.304;19.028;2022-10-31T16:12:31;32.13;;;11.73;;
40981;SDS011;26708;50.304;19.028;2022-10-31T16:15:35;25.48;;;10.90;;
40981;SDS011;26708;50.304;19.028;2022-10-31T16:18:36;23.48;;;9.70;;
40981;SDS011;26708;50.304;19.028;2022-10-31T16:21:39;42.55;;;15.45;;
40981;SDS011;26708;50.304;19.028;2022-10-31T16:24:47;55.30;;;20.05;;
40981;SDS011;26708;50.304;19.028;2022-10-31T16:28:02;70.72;;;26.23;;
40981;SDS011;26708;50.304;19.028;2022-10-31T16:31:12;74.22;;;26.95;;
40981;SDS011;26708;50.304;19.028;2022-10-31T16:34:15;108.57;;;36.90;;
40981;SDS011;26708;50.304;19.028;2022-10-31T16:37:26;115.72;;;36.83;;
40981;SDS011;26708;50.304;19.028;2022-10-31T16:42:44;110.13;;;37.30;;
40981;SDS011;26708;50.304;19.028;2022-10-31T16:45:46;117.18;;;34.17;;
40981;SDS011;26708;50.304;19.028;2022-10-31T16:48:48;84.10;;;30.05;;
40981;SDS011;26708;50.304;19.028;2022-10-31T16:51:49;66.13;;;26.23;;
40981;SDS011;26708;50.304;19.028;2022-10-31T16:54:55;75.63;;;26.95;;
40981;SDS011;26708;50.304;19.028;2022-10-31T16:57:56;73.20;;;28.23;;
40981;SDS011;26708;50.304;19.028;2022-10-31T17:00:58;91.90;;;35.00;;
40981;SDS011;26708;50.304;19.028;2022-10-31T17:04:04;82.55;;;32.53;;
40981;SDS011;26708;50.304;19.028;2022-10-31T17:07:05;67.15;;;27.55;;
40981;SDS011;26708;50.304;19.028;2022-10-31T17:10:06;58.00;;;25.70;;
40981;SDS011;26708;50.304;19.028;2022-10-31T17:13:18;65.03;;;28.08;;
40981;SDS011;26708;50.304;19.028;2022-10-31T17:16:21;62.53;;;26.20;;
40981;SDS011;26708;50.304;19.028;2022-10-31T17:19:22;67.75;;;26.52;;
40981;SDS011;26708;50.304;19.028;2022-10-31T17:22:23;68.68;;;29.02;;
40981;SDS011;26708;50.304;19.028;2022-10-31T17:25:25;60.00;;;24.02;;
40981;SDS011;26708;50.304;19.028;2022-10-31T17:28:28;57.75;;;23.55;;
40981;SDS011;26708;50.304;19.028;2022-10-31T17:31:30;47.22;;;19.55;;
40981;SDS011;26708;50.304;19.028;2022-10-31T17:34:31;54.38;;;21.30;;
40981;SDS011;26708;50.304;19.028;2022-10-31T17:37:32;38.33;;;17.85;;
40981;SDS011;26708;50.304;19.028;2022-10-31T17:40:33;53.33;;;24.20;;
40981;SDS011;26708;50.304;19.028;2022-10-31T17:43:37;72.85;;;28.05;;
40981;SDS011;26708;50.304;19.028;2022-10-31T17:46:38;84.57;;;31.58;;
40981;SDS011;26708;50.304;19.028;2022-10-31T17:49:39;87.78;;;35.10;;
40981;SDS011;26708;50.304;19.028;2022-10-31T17:52:40;98.10;;;40.78;;
40981;SDS011;26708;50.304;19.028;2022-10-31T17:55:40;102.15;;;40.92;;
40981;SDS011;26708;50.304;19.028;2022-10-31T17:58:41;109.65;;;46.80;;
40981;SDS011;26708;50.304;19.028;2022-10-31T18:01:42;130.45;;;52.83;;
40981;SDS011;26708;50.304;19.028;2022-10-31T18:04:43;127.88;;;52.22;;
40981;SDS011;26708;50.304;19.028;2022-10-31T18:07:48;130.73;;;53.05;;
40981;SDS011;26708;50.304;19.028;2022-10-31T18:10:49;124.65;;;52.42;;
40981;SDS011;26708;50.304;19.028;2022-10-31T18:13:54;73.10;;;30.98;;
40981;SDS011;26708;50.304;19.028;2022-10-31T18:16:56;88.85;;;37.17;;
40981;SDS011;26708;50.304;19.028;2022-10-31T18:19:57;78.57;;;33.85;;
40981;SDS011;26708;50.304;19.028;2022-10-31T18:22:57;88.47;;;37.50;;
40981;SDS011;26708;50.304;19.028;2022-10-31T18:25:58;83.47;;;37.78;;
40981;SDS011;26708;50.304;19.028;2022-10-31T18:28:59;79.30;;;33.30;;
40981;SDS011;26708;50.304;19.028;2022-10-31T18:32:00;99.32;;;42.33;;
40981;SDS011;26708;50.304;19.028;2022-10-31T18:35:01;126.05;;;54.75;;
40981;SDS011;26708;50.304;19.028;2022-10-31T18:38:02;113.22;;;51.10;;
40981;SDS011;26708;50.304;19.028;2022-10-31T18:41:05;113.70;;;53.22;;
40981;SDS011;26708;50.304;19.028;2022-10-31T18:44:07;111.57;;;48.67;;
40981;SDS011;26708;50.304;19.028;2022-10-31T18:47:08;120.45;;;55.13;;
40981;SDS011;26708;50.304;19.028;2022-10-31T18:50:09;159.80;;;68.10;;
40981;SDS011;26708;50.304;19.028;2022-10-31T18:53:10;157.63;;;71.40;;
40981;SDS011;26708;50.304;19.028;2022-10-31T18:56:11;246.32;;;104.45;;
40981;SDS011;26708;50.304;19.028;2022-10-31T18:59:16;226.25;;;99.30;;
40981;SDS011;26708;50.304;19.028;2022-10-31T19:02:17;200.70;;;93.60;;
40981;SDS011;26708;50.304;19.028;2022-10-31T19:05:18;197.73;;;93.55;;
40981;SDS011;26708;50.304;19.028;2022-10-31T19:08:20;194.43;;;89.90;;
40981;SDS011;26708;50.304;19.028;2022-10-31T19:11:21;186.48;;;84.22;;
40981;SDS011;26708;50.304;19.028;2022-10-31T19:14:22;149.73;;;74.25;;
40981;SDS011;26708;50.304;19.028;2022-10-31T19:17:23;150.70;;;72.20;;
40981;SDS011;26708;50.304;19.028;2022-10-31T19:20:25;158.15;;;74.95;;
40981;SDS011;26708;50.304;19.028;2022-10-31T19:23:26;161.98;;;79.22;;
40981;SDS011;26708;50.304;19.028;2022-10-31T19:26:27;150.20;;;65.72;;
40981;SDS011;26708;50.304;19.028;2022-10-31T19:29:28;144.32;;;61.08;;
40981;SDS011;26708;50.304;19.028;2022-10-31T19:32:29;98.95;;;42.90;;
40981;SDS011;26708;50.304;19.028;2022-10-31T19:35:30;137.93;;;61.25;;
40981;SDS011;26708;50.304;19.028;2022-10-31T19:38:31;137.77;;;60.80;;
40981;SDS011;26708;50.304;19.028;2022-10-31T19:41:34;104.70;;;45.65;;
40981;SDS011;26708;50.304;19.028;2022-10-31T19:44:35;104.10;;;45.50;;
40981;SDS011;26708;50.304;19.028;2022-10-31T19:47:36;94.45;;;45.03;;
40981;SDS011;26708;50.304;19.028;2022-10-31T19:50:37;97.30;;;43.72;;
40981;SDS011;26708;50.304;19.028;2022-10-31T19:53:37;96.22;;;43.75;;
40981;SDS011;26708;50.304;19.028;2022-10-31T19:56:39;95.55;;;43.92;;
40981;SDS011;26708;50.304;19.028;2022-10-31T19:59:39;87.65;;;38.50;;
40981;SDS011;26708;50.304;19.028;2022-10-31T20:06:32;105.40;;;47.05;;
40981;SDS011;26708;50.304;19.028;2022-10-31T20:09:35;110.75;;;53.13;;
40981;SDS011;26708;50.304;19.028;2022-10-31T20:12:36;124.45;;;54.00;;
40981;SDS011;26708;50.304;19.028;2022-10-31T20:15:37;117.53;;;55.83;;
40981;SDS011;26708;50.304;19.028;2022-10-31T20:18:38;114.75;;;52.53;;
40981;SDS011;26708;50.304;19.028;2022-10-31T20:21:40;109.25;;;52.70;;
40981;SDS011;26708;50.304;19.028;2022-10-31T20:24:41;110.75;;;54.30;;
40981;SDS011;26708;50.304;19.028;2022-10-31T20:27:43;111.25;;;54.63;;
40981;SDS011;26708;50.304;19.028;2022-10-31T20:30:44;115.10;;;55.60;;
40981;SDS011;26708;50.304;19.028;2022-10-31T20:33:45;113.65;;;55.47;;
40981;SDS011;26708;50.304;19.028;2022-10-31T20:36:47;102.05;;;55.47;;
40981;SDS011;26708;50.304;19.028;2022-10-31T20:39:48;116.30;;;57.13;;
40981;SDS011;26708;50.304;19.028;2022-10-31T20:42:49;108.70;;;55.88;;